sensor_id;sensor_type;location;lat;lon;timestamp;P1;durP1;ratioP1;P2;durP2;ratioP2
297;SDS011;133;49.626;9.680;2022-12-20T00:00:00;44.93;;;24.67;;
297;SDS011;133;49.626;9.680;2022-12-20T00:02:26;49.10;;;27.13;;
297;SDS011;133;49.626;9.680;2022-12-20T00:04:51;48.83;;;27.30;;
297;SDS011;133;49.626;9.680;2022-12-20T00:07:17;54.17;;;28.10;;
297;SDS011;133;49.626;9.680;2022-12-20T00:09:42;41.90;;;24.03;;
297;SDS011;133;49.626;9.680;2022-12-20T00:12:08;47.20;;;25.10;;
297;SDS011;133;49.626;9.680;2022-12-20T00:14:34;49.63;;;26.50;;
297;SDS011;133;49.626;9.680;2022-12-20T00:16:59;48.60;;;26.80;;
297;SDS011;133;49.626;9.680;2022-12-20T00:19:25;46.13;;;27.80;;
297;SDS011;133;49.626;9.680;2022-12-20T00:21:51;45.03;;;25.97;;
297;SDS011;133;49.626;9.680;2022-12-20T00:24:16;52.87;;;28.67;;
297;SDS011;133;49.626;9.680;2022-12-20T00:26:42;50.40;;;26.47;;
297;SDS011;133;49.626;9.680;2022-12-20T00:29:07;47.03;;;27.27;;
297;SDS011;133;49.626;9.680;2022-12-20T00:31:33;43.83;;;24.93;;
297;SDS011;133;49.626;9.680;2022-12-20T00:33:59;45.63;;;25.43;;
297;SDS011;133;49.626;9.680;2022-12-20T00:36:26;44.97;;;25.60;;
297;SDS011;133;49.626;9.680;2022-12-20T00:38:53;50.57;;;25.33;;
297;SDS011;133;49.626;9.680;2022-12-20T00:41:21;45.90;;;25.67;;
297;SDS011;133;49.626;9.680;2022-12-20T00:43:48;50.13;;;26.07;;
297;SDS011;133;49.626;9.680;2022-12-20T00:46:14;46.20;;;25.73;;
297;SDS011;133;49.626;9.680;2022-12-20T00:48:40;46.80;;;25.07;;
297;SDS011;133;49.626;9.680;2022-12-20T00:51:07;43.70;;;25.83;;
297;SDS011;133;49.626;9.680;2022-12-20T00:53:37;45.90;;;25.80;;
297;SDS011;133;49.626;9.680;2022-12-20T00:56:04;44.40;;;24.50;;
297;SDS011;133;49.626;9.680;2022-12-20T00:58:31;49.17;;;26.37;;
297;SDS011;133;49.626;9.680;2022-12-20T01:00:58;49.43;;;26.80;;
297;SDS011;133;49.626;9.680;2022-12-20T01:03:24;53.00;;;27.93;;
297;SDS011;133;49.626;9.680;2022-12-20T01:08:34;46.87;;;24.80;;
297;SDS011;133;49.626;9.680;2022-12-20T01:11:01;45.07;;;25.77;;
297;SDS011;133;49.626;9.680;2022-12-20T01:13:30;44.07;;;25.50;;
297;SDS011;133;49.626;9.680;2022-12-20T01:15:56;48.80;;;28.63;;
297;SDS011;133;49.626;9.680;2022-12-20T01:18:31;49.10;;;27.70;;
297;SDS011;133;49.626;9.680;2022-12-20T01:21:04;46.53;;;26.03;;
297;SDS011;133;49.626;9.680;2022-12-20T01:23:32;44.23;;;25.43;;
297;SDS011;133;49.626;9.680;2022-12-20T01:26:01;44.00;;;23.43;;
297;SDS011;133;49.626;9.680;2022-12-20T01:28:29;44.77;;;24.87;;
297;SDS011;133;49.626;9.680;2022-12-20T01:30:55;42.60;;;25.20;;
297;SDS011;133;49.626;9.680;2022-12-20T01:33:21;47.10;;;25.40;;
297;SDS011;133;49.626;9.680;2022-12-20T01:35:56;48.80;;;26.50;;
297;SDS011;133;49.626;9.680;2022-12-20T01:38:23;44.83;;;24.60;;
297;SDS011;133;49.626;9.680;2022-12-20T01:40:49;46.40;;;24.73;;
297;SDS011;133;49.626;9.680;2022-12-20T01:43:15;43.20;;;24.77;;
297;SDS011;133;49.626;9.680;2022-12-20T01:45:42;47.50;;;24.90;;
297;SDS011;133;49.626;9.680;2022-12-20T01:48:08;40.87;;;24.90;;
297;SDS011;133;49.626;9.680;2022-12-20T01:50:35;50.43;;;26.97;;
297;SDS011;133;49.626;9.680;2022-12-20T01:53:01;48.73;;;25.80;;
297;SDS011;133;49.626;9.680;2022-12-20T01:55:29;43.70;;;25.57;;
297;SDS011;133;49.626;9.680;2022-12-20T02:00:27;41.50;;;23.33;;
297;SDS011;133;49.626;9.680;2022-12-20T02:02:53;44.17;;;23.70;;
297;SDS011;133;49.626;9.680;2022-12-20T02:05:22;49.33;;;26.00;;
297;SDS011;133;49.626;9.680;2022-12-20T02:07:49;48.50;;;26.30;;
297;SDS011;133;49.626;9.680;2022-12-20T02:10:18;44.03;;;25.70;;
297;SDS011;133;49.626;9.680;2022-12-20T02:12:46;45.90;;;25.20;;
297;SDS011;133;49.626;9.680;2022-12-20T02:18:12;46.87;;;26.50;;
297;SDS011;133;49.626;9.680;2022-12-20T02:23:48;47.20;;;26.50;;
297;SDS011;133;49.626;9.680;2022-12-20T02:29:22;48.67;;;24.20;;
297;SDS011;133;49.626;9.680;2022-12-20T02:34:52;54.03;;;27.73;;
297;SDS011;133;49.626;9.680;2022-12-20T02:37:18;47.63;;;25.50;;
297;SDS011;133;49.626;9.680;2022-12-20T02:39:44;50.60;;;26.30;;
297;SDS011;133;49.626;9.680;2022-12-20T02:42:11;56.57;;;28.67;;
297;SDS011;133;49.626;9.680;2022-12-20T02:44:49;48.07;;;25.63;;
297;SDS011;133;49.626;9.680;2022-12-20T02:47:58;49.87;;;27.43;;
297;SDS011;133;49.626;9.680;2022-12-20T02:50:35;44.13;;;25.47;;
297;SDS011;133;49.626;9.680;2022-12-20T02:53:04;44.60;;;25.20;;
297;SDS011;133;49.626;9.680;2022-12-20T02:55:40;56.53;;;27.33;;
297;SDS011;133;49.626;9.680;2022-12-20T02:58:11;62.00;;;30.17;;
297;SDS011;133;49.626;9.680;2022-12-20T03:00:42;50.10;;;27.27;;
297;SDS011;133;49.626;9.680;2022-12-20T03:03:11;48.20;;;25.20;;
297;SDS011;133;49.626;9.680;2022-12-20T03:05:46;46.47;;;25.30;;
297;SDS011;133;49.626;9.680;2022-12-20T03:08:14;49.10;;;25.63;;
297;SDS011;133;49.626;9.680;2022-12-20T03:10:40;50.47;;;26.27;;
297;SDS011;133;49.626;9.680;2022-12-20T03:13:06;51.20;;;28.03;;
297;SDS011;133;49.626;9.680;2022-12-20T03:15:32;45.83;;;25.77;;
297;SDS011;133;49.626;9.680;2022-12-20T03:17:57;42.60;;;25.83;;
297;SDS011;133;49.626;9.680;2022-12-20T03:20:23;53.80;;;26.57;;
297;SDS011;133;49.626;9.680;2022-12-20T03:22:49;57.17;;;31.23;;
297;SDS011;133;49.626;9.680;2022-12-20T03:25:14;52.00;;;30.03;;
297;SDS011;133;49.626;9.680;2022-12-20T03:27:43;51.70;;;28.87;;
297;SDS011;133;49.626;9.680;2022-12-20T03:30:09;48.47;;;27.33;;
297;SDS011;133;49.626;9.680;2022-12-20T03:32:36;50.13;;;27.23;;
297;SDS011;133;49.626;9.680;2022-12-20T03:35:01;45.93;;;26.87;;
297;SDS011;133;49.626;9.680;2022-12-20T03:37:27;50.73;;;26.97;;
297;SDS011;133;49.626;9.680;2022-12-20T03:39:53;68.73;;;34.40;;
297;SDS011;133;49.626;9.680;2022-12-20T03:42:19;56.57;;;28.70;;
297;SDS011;133;49.626;9.680;2022-12-20T03:44:44;47.47;;;27.07;;
297;SDS011;133;49.626;9.680;2022-12-20T03:47:10;58.97;;;29.90;;
297;SDS011;133;49.626;9.680;2022-12-20T03:49:36;53.40;;;27.17;;
297;SDS011;133;49.626;9.680;2022-12-20T03:52:01;55.83;;;27.40;;
297;SDS011;133;49.626;9.680;2022-12-20T03:54:27;44.30;;;23.67;;
297;SDS011;133;49.626;9.680;2022-12-20T03:56:52;49.10;;;26.47;;
297;SDS011;133;49.626;9.680;2022-12-20T03:59:18;44.57;;;26.03;;
297;SDS011;133;49.626;9.680;2022-12-20T04:01:43;45.60;;;26.30;;
297;SDS011;133;49.626;9.680;2022-12-20T04:04:10;48.63;;;26.00;;
297;SDS011;133;49.626;9.680;2022-12-20T04:06:37;50.10;;;27.63;;
297;SDS011;133;49.626;9.680;2022-12-20T04:09:03;47.20;;;26.17;;
297;SDS011;133;49.626;9.680;2022-12-20T04:11:29;46.03;;;25.80;;
297;SDS011;133;49.626;9.680;2022-12-20T04:13:54;45.83;;;24.93;;
297;SDS011;133;49.626;9.680;2022-12-20T04:16:21;44.87;;;25.97;;
297;SDS011;133;49.626;9.680;2022-12-20T04:18:51;44.23;;;24.83;;
297;SDS011;133;49.626;9.680;2022-12-20T04:21:24;44.80;;;25.47;;
297;SDS011;133;49.626;9.680;2022-12-20T04:23:52;56.37;;;26.60;;
297;SDS011;133;49.626;9.680;2022-12-20T04:26:18;47.03;;;27.93;;
297;SDS011;133;49.626;9.680;2022-12-20T04:28:44;47.80;;;26.20;;
297;SDS011;133;49.626;9.680;2022-12-20T04:31:09;53.43;;;27.07;;
297;SDS011;133;49.626;9.680;2022-12-20T04:33:35;48.33;;;26.67;;
297;SDS011;133;49.626;9.680;2022-12-20T04:36:02;47.47;;;27.00;;
297;SDS011;133;49.626;9.680;2022-12-20T04:38:28;51.80;;;26.17;;
297;SDS011;133;49.626;9.680;2022-12-20T04:40:54;57.43;;;29.67;;
297;SDS011;133;49.626;9.680;2022-12-20T04:43:20;47.87;;;25.77;;
297;SDS011;133;49.626;9.680;2022-12-20T04:45:47;46.13;;;25.60;;
297;SDS011;133;49.626;9.680;2022-12-20T04:48:14;45.37;;;26.73;;
297;SDS011;133;49.626;9.680;2022-12-20T04:50:40;49.73;;;27.43;;
297;SDS011;133;49.626;9.680;2022-12-20T04:53:06;55.80;;;28.77;;
297;SDS011;133;49.626;9.680;2022-12-20T04:55:51;48.70;;;25.90;;
297;SDS011;133;49.626;9.680;2022-12-20T04:58:17;47.60;;;26.13;;
297;SDS011;133;49.626;9.680;2022-12-20T05:00:42;41.70;;;25.90;;
297;SDS011;133;49.626;9.680;2022-12-20T05:03:08;51.67;;;28.40;;
297;SDS011;133;49.626;9.680;2022-12-20T05:05:34;46.00;;;25.33;;
297;SDS011;133;49.626;9.680;2022-12-20T05:07:59;46.27;;;24.10;;
297;SDS011;133;49.626;9.680;2022-12-20T05:10:25;42.80;;;25.70;;
297;SDS011;133;49.626;9.680;2022-12-20T05:12:50;48.07;;;26.03;;
297;SDS011;133;49.626;9.680;2022-12-20T05:15:16;49.10;;;27.20;;
297;SDS011;133;49.626;9.680;2022-12-20T05:17:42;50.13;;;27.17;;
297;SDS011;133;49.626;9.680;2022-12-20T05:20:07;49.33;;;25.80;;
297;SDS011;133;49.626;9.680;2022-12-20T05:22:33;54.80;;;27.57;;
297;SDS011;133;49.626;9.680;2022-12-20T05:25:18;47.77;;;26.60;;
297;SDS011;133;49.626;9.680;2022-12-20T05:28:02;48.47;;;27.57;;
297;SDS011;133;49.626;9.680;2022-12-20T05:30:27;48.07;;;26.30;;
297;SDS011;133;49.626;9.680;2022-12-20T05:32:53;45.67;;;26.10;;
297;SDS011;133;49.626;9.680;2022-12-20T05:35:19;41.73;;;24.53;;
297;SDS011;133;49.626;9.680;2022-12-20T05:37:45;42.77;;;24.60;;
297;SDS011;133;49.626;9.680;2022-12-20T05:40:11;48.77;;;25.80;;
297;SDS011;133;49.626;9.680;2022-12-20T05:42:37;46.27;;;25.67;;
297;SDS011;133;49.626;9.680;2022-12-20T05:45:03;45.00;;;25.13;;
297;SDS011;133;49.626;9.680;2022-12-20T05:47:29;55.40;;;31.40;;
297;SDS011;133;49.626;9.680;2022-12-20T05:49:58;45.60;;;26.87;;
297;SDS011;133;49.626;9.680;2022-12-20T05:52:24;45.90;;;25.80;;
297;SDS011;133;49.626;9.680;2022-12-20T05:54:50;52.30;;;28.97;;
297;SDS011;133;49.626;9.680;2022-12-20T05:57:16;49.47;;;27.70;;
297;SDS011;133;49.626;9.680;2022-12-20T05:59:42;53.53;;;29.00;;
297;SDS011;133;49.626;9.680;2022-12-20T06:02:08;50.80;;;29.20;;
297;SDS011;133;49.626;9.680;2022-12-20T06:04:35;52.03;;;28.43;;
297;SDS011;133;49.626;9.680;2022-12-20T06:07:01;54.63;;;28.73;;
297;SDS011;133;49.626;9.680;2022-12-20T06:09:26;48.80;;;27.40;;
297;SDS011;133;49.626;9.680;2022-12-20T06:11:52;46.97;;;26.20;;
297;SDS011;133;49.626;9.680;2022-12-20T06:14:18;47.73;;;27.47;;
297;SDS011;133;49.626;9.680;2022-12-20T06:16:43;42.50;;;25.10;;
297;SDS011;133;49.626;9.680;2022-12-20T06:19:09;42.83;;;24.80;;
297;SDS011;133;49.626;9.680;2022-12-20T06:21:34;50.77;;;27.70;;
297;SDS011;133;49.626;9.680;2022-12-20T06:24:00;50.07;;;28.80;;
297;SDS011;133;49.626;9.680;2022-12-20T06:26:26;47.97;;;27.43;;
297;SDS011;133;49.626;9.680;2022-12-20T06:28:51;44.87;;;25.43;;
297;SDS011;133;49.626;9.680;2022-12-20T06:31:18;45.40;;;27.40;;
297;SDS011;133;49.626;9.680;2022-12-20T06:33:44;53.47;;;28.00;;
297;SDS011;133;49.626;9.680;2022-12-20T06:36:10;48.57;;;27.60;;
297;SDS011;133;49.626;9.680;2022-12-20T06:38:35;45.57;;;24.60;;
297;SDS011;133;49.626;9.680;2022-12-20T06:41:01;48.50;;;26.57;;
297;SDS011;133;49.626;9.680;2022-12-20T06:43:27;46.50;;;25.53;;
297;SDS011;133;49.626;9.680;2022-12-20T06:45:53;52.17;;;27.87;;
297;SDS011;133;49.626;9.680;2022-12-20T06:48:18;43.10;;;25.73;;
297;SDS011;133;49.626;9.680;2022-12-20T06:50:46;44.13;;;26.07;;
297;SDS011;133;49.626;9.680;2022-12-20T06:53:13;48.50;;;27.10;;
297;SDS011;133;49.626;9.680;2022-12-20T06:55:38;60.97;;;32.87;;
297;SDS011;133;49.626;9.680;2022-12-20T06:58:04;54.77;;;27.80;;
297;SDS011;133;49.626;9.680;2022-12-20T07:00:30;45.43;;;26.33;;
297;SDS011;133;49.626;9.680;2022-12-20T07:02:55;50.27;;;27.40;;
297;SDS011;133;49.626;9.680;2022-12-20T07:05:21;41.43;;;24.83;;
297;SDS011;133;49.626;9.680;2022-12-20T07:07:47;46.50;;;24.93;;
297;SDS011;133;49.626;9.680;2022-12-20T07:10:12;42.90;;;23.37;;
297;SDS011;133;49.626;9.680;2022-12-20T07:12:38;50.23;;;27.47;;
297;SDS011;133;49.626;9.680;2022-12-20T07:15:05;43.40;;;24.33;;
297;SDS011;133;49.626;9.680;2022-12-20T07:17:31;50.97;;;27.33;;
297;SDS011;133;49.626;9.680;2022-12-20T07:19:57;43.30;;;24.80;;
297;SDS011;133;49.626;9.680;2022-12-20T07:22:23;43.13;;;23.80;;
297;SDS011;133;49.626;9.680;2022-12-20T07:24:48;42.50;;;24.83;;
297;SDS011;133;49.626;9.680;2022-12-20T07:27:14;44.30;;;24.50;;
297;SDS011;133;49.626;9.680;2022-12-20T07:29:40;49.70;;;26.77;;
297;SDS011;133;49.626;9.680;2022-12-20T07:32:06;44.60;;;24.90;;
297;SDS011;133;49.626;9.680;2022-12-20T07:34:32;50.60;;;26.40;;
297;SDS011;133;49.626;9.680;2022-12-20T07:36:58;43.13;;;24.67;;
297;SDS011;133;49.626;9.680;2022-12-20T07:39:23;48.50;;;26.80;;
297;SDS011;133;49.626;9.680;2022-12-20T07:41:52;41.37;;;24.30;;
297;SDS011;133;49.626;9.680;2022-12-20T07:44:18;45.87;;;24.33;;
297;SDS011;133;49.626;9.680;2022-12-20T07:46:44;37.30;;;22.40;;
297;SDS011;133;49.626;9.680;2022-12-20T07:49:10;38.30;;;23.60;;
297;SDS011;133;49.626;9.680;2022-12-20T07:51:36;42.23;;;25.07;;
297;SDS011;133;49.626;9.680;2022-12-20T07:54:08;75.00;;;38.00;;
297;SDS011;133;49.626;9.680;2022-12-20T07:56:39;61.13;;;32.80;;
297;SDS011;133;49.626;9.680;2022-12-20T07:59:08;72.30;;;38.40;;
297;SDS011;133;49.626;9.680;2022-12-20T08:01:36;58.40;;;34.77;;
297;SDS011;133;49.626;9.680;2022-12-20T08:04:03;53.73;;;31.00;;
297;SDS011;133;49.626;9.680;2022-12-20T08:06:33;61.13;;;31.37;;
297;SDS011;133;49.626;9.680;2022-12-20T08:09:01;48.23;;;27.27;;
297;SDS011;133;49.626;9.680;2022-12-20T08:11:29;46.97;;;27.10;;
297;SDS011;133;49.626;9.680;2022-12-20T08:13:59;50.67;;;28.20;;
297;SDS011;133;49.626;9.680;2022-12-20T08:16:24;45.10;;;27.00;;
297;SDS011;133;49.626;9.680;2022-12-20T08:18:50;52.43;;;28.93;;
297;SDS011;133;49.626;9.680;2022-12-20T08:21:16;54.93;;;30.30;;
297;SDS011;133;49.626;9.680;2022-12-20T08:23:43;57.43;;;30.40;;
297;SDS011;133;49.626;9.680;2022-12-20T08:26:08;51.10;;;30.63;;
297;SDS011;133;49.626;9.680;2022-12-20T08:28:34;54.80;;;29.20;;
297;SDS011;133;49.626;9.680;2022-12-20T08:31:03;50.70;;;28.40;;
297;SDS011;133;49.626;9.680;2022-12-20T08:33:31;50.10;;;26.50;;
297;SDS011;133;49.626;9.680;2022-12-20T08:35:59;47.07;;;27.37;;
297;SDS011;133;49.626;9.680;2022-12-20T08:38:27;48.63;;;26.07;;
297;SDS011;133;49.626;9.680;2022-12-20T08:40:55;43.77;;;25.77;;
297;SDS011;133;49.626;9.680;2022-12-20T08:43:25;46.00;;;24.40;;
297;SDS011;133;49.626;9.680;2022-12-20T08:45:52;45.17;;;25.13;;
297;SDS011;133;49.626;9.680;2022-12-20T08:48:19;43.50;;;24.73;;
297;SDS011;133;49.626;9.680;2022-12-20T08:50:45;100.17;;;48.97;;
297;SDS011;133;49.626;9.680;2022-12-20T08:53:11;101.00;;;48.70;;
297;SDS011;133;49.626;9.680;2022-12-20T08:55:40;70.30;;;36.17;;
297;SDS011;133;49.626;9.680;2022-12-20T08:58:08;51.70;;;28.43;;
297;SDS011;133;49.626;9.680;2022-12-20T09:00:34;47.47;;;27.63;;
297;SDS011;133;49.626;9.680;2022-12-20T09:03:00;52.83;;;26.53;;
297;SDS011;133;49.626;9.680;2022-12-20T09:05:25;47.43;;;26.50;;
297;SDS011;133;49.626;9.680;2022-12-20T09:07:51;51.17;;;28.30;;
297;SDS011;133;49.626;9.680;2022-12-20T09:10:22;43.80;;;27.53;;
297;SDS011;133;49.626;9.680;2022-12-20T09:12:47;43.33;;;25.40;;
297;SDS011;133;49.626;9.680;2022-12-20T09:15:13;45.37;;;25.90;;
297;SDS011;133;49.626;9.680;2022-12-20T09:17:39;53.80;;;29.33;;
297;SDS011;133;49.626;9.680;2022-12-20T09:20:04;48.50;;;26.70;;
297;SDS011;133;49.626;9.680;2022-12-20T09:22:30;49.10;;;28.77;;
297;SDS011;133;49.626;9.680;2022-12-20T09:24:58;77.90;;;35.93;;
297;SDS011;133;49.626;9.680;2022-12-20T09:27:24;48.67;;;29.23;;
297;SDS011;133;49.626;9.680;2022-12-20T09:29:50;47.43;;;27.53;;
297;SDS011;133;49.626;9.680;2022-12-20T09:32:18;46.07;;;25.10;;
297;SDS011;133;49.626;9.680;2022-12-20T09:34:44;43.83;;;26.47;;
297;SDS011;133;49.626;9.680;2022-12-20T09:37:11;43.13;;;25.57;;
297;SDS011;133;49.626;9.680;2022-12-20T09:39:36;43.30;;;26.50;;
297;SDS011;133;49.626;9.680;2022-12-20T09:42:05;46.17;;;26.80;;
297;SDS011;133;49.626;9.680;2022-12-20T09:44:34;48.10;;;26.33;;
297;SDS011;133;49.626;9.680;2022-12-20T09:47:14;42.50;;;25.80;;
297;SDS011;133;49.626;9.680;2022-12-20T09:49:45;45.00;;;27.33;;
297;SDS011;133;49.626;9.680;2022-12-20T10:00:27;52.00;;;29.20;;
297;SDS011;133;49.626;9.680;2022-12-20T10:02:54;46.37;;;26.20;;
297;SDS011;133;49.626;9.680;2022-12-20T10:05:30;58.07;;;31.43;;
297;SDS011;133;49.626;9.680;2022-12-20T10:11:27;61.57;;;35.63;;
297;SDS011;133;49.626;9.680;2022-12-20T10:16:46;44.80;;;27.77;;
297;SDS011;133;49.626;9.680;2022-12-20T10:21:55;51.40;;;30.37;;
297;SDS011;133;49.626;9.680;2022-12-20T10:24:30;44.70;;;27.20;;
297;SDS011;133;49.626;9.680;2022-12-20T10:27:18;71.57;;;39.87;;
297;SDS011;133;49.626;9.680;2022-12-20T10:29:44;58.43;;;32.53;;
297;SDS011;133;49.626;9.680;2022-12-20T10:32:13;56.70;;;31.27;;
297;SDS011;133;49.626;9.680;2022-12-20T10:37:23;52.60;;;28.43;;
297;SDS011;133;49.626;9.680;2022-12-20T10:39:49;45.90;;;27.83;;
297;SDS011;133;49.626;9.680;2022-12-20T10:42:58;47.83;;;26.80;;
297;SDS011;133;49.626;9.680;2022-12-20T10:45:29;47.37;;;27.90;;
297;SDS011;133;49.626;9.680;2022-12-20T10:47:57;53.00;;;29.93;;
297;SDS011;133;49.626;9.680;2022-12-20T10:50:24;59.30;;;31.27;;
297;SDS011;133;49.626;9.680;2022-12-20T10:58:05;42.63;;;25.87;;
297;SDS011;133;49.626;9.680;2022-12-20T11:00:41;52.87;;;30.30;;
297;SDS011;133;49.626;9.680;2022-12-20T11:05:56;54.30;;;30.80;;
297;SDS011;133;49.626;9.680;2022-12-20T11:08:28;42.40;;;26.87;;
297;SDS011;133;49.626;9.680;2022-12-20T11:11:10;50.60;;;28.47;;
297;SDS011;133;49.626;9.680;2022-12-20T11:13:37;45.93;;;24.97;;
297;SDS011;133;49.626;9.680;2022-12-20T11:16:04;43.77;;;25.80;;
297;SDS011;133;49.626;9.680;2022-12-20T11:18:45;46.03;;;26.33;;
297;SDS011;133;49.626;9.680;2022-12-20T11:21:43;47.80;;;28.37;;
297;SDS011;133;49.626;9.680;2022-12-20T11:24:14;43.03;;;26.33;;
297;SDS011;133;49.626;9.680;2022-12-20T11:26:55;45.80;;;26.43;;
297;SDS011;133;49.626;9.680;2022-12-20T11:32:20;58.27;;;28.33;;
297;SDS011;133;49.626;9.680;2022-12-20T11:34:59;47.70;;;29.43;;
297;SDS011;133;49.626;9.680;2022-12-20T11:40:30;42.50;;;26.27;;
297;SDS011;133;49.626;9.680;2022-12-20T11:43:01;43.27;;;27.70;;
297;SDS011;133;49.626;9.680;2022-12-20T11:51:02;42.73;;;24.60;;
297;SDS011;133;49.626;9.680;2022-12-20T11:53:38;45.77;;;27.83;;
297;SDS011;133;49.626;9.680;2022-12-20T11:56:09;63.63;;;32.40;;
297;SDS011;133;49.626;9.680;2022-12-20T12:01:52;52.53;;;29.13;;
297;SDS011;133;49.626;9.680;2022-12-20T12:04:49;49.57;;;28.37;;
297;SDS011;133;49.626;9.680;2022-12-20T12:07:21;54.23;;;29.90;;
297;SDS011;133;49.626;9.680;2022-12-20T12:09:58;48.97;;;30.23;;
297;SDS011;133;49.626;9.680;2022-12-20T12:12:32;48.93;;;29.93;;
297;SDS011;133;49.626;9.680;2022-12-20T12:20:51;47.57;;;25.90;;
297;SDS011;133;49.626;9.680;2022-12-20T12:23:24;62.83;;;34.57;;
297;SDS011;133;49.626;9.680;2022-12-20T12:25:59;48.80;;;27.90;;
297;SDS011;133;49.626;9.680;2022-12-20T12:28:31;47.20;;;28.63;;
297;SDS011;133;49.626;9.680;2022-12-20T12:31:12;44.50;;;27.50;;
297;SDS011;133;49.626;9.680;2022-12-20T12:33:45;62.60;;;33.87;;
297;SDS011;133;49.626;9.680;2022-12-20T12:44:34;65.73;;;36.60;;
297;SDS011;133;49.626;9.680;2022-12-20T12:47:24;63.90;;;34.30;;
297;SDS011;133;49.626;9.680;2022-12-20T12:50:02;54.60;;;31.47;;
297;SDS011;133;49.626;9.680;2022-12-20T12:58:12;51.80;;;30.27;;
297;SDS011;133;49.626;9.680;2022-12-20T13:09:08;59.40;;;36.33;;
297;SDS011;133;49.626;9.680;2022-12-20T13:11:55;63.43;;;36.10;;
297;SDS011;133;49.626;9.680;2022-12-20T13:16:52;57.90;;;32.43;;
297;SDS011;133;49.626;9.680;2022-12-20T13:22:13;69.33;;;36.57;;
297;SDS011;133;49.626;9.680;2022-12-20T13:24:55;72.40;;;40.50;;
297;SDS011;133;49.626;9.680;2022-12-20T13:27:36;65.97;;;36.33;;
297;SDS011;133;49.626;9.680;2022-12-20T13:38:03;90.57;;;45.10;;
297;SDS011;133;49.626;9.680;2022-12-20T13:40:51;71.97;;;37.47;;
297;SDS011;133;49.626;9.680;2022-12-20T13:45:59;58.83;;;31.80;;
297;SDS011;133;49.626;9.680;2022-12-20T13:48:43;82.50;;;44.20;;
297;SDS011;133;49.626;9.680;2022-12-20T13:51:18;64.80;;;37.03;;
297;SDS011;133;49.626;9.680;2022-12-20T13:58:52;70.57;;;36.87;;
297;SDS011;133;49.626;9.680;2022-12-20T14:01:23;59.00;;;34.47;;
297;SDS011;133;49.626;9.680;2022-12-20T14:03:50;50.83;;;30.90;;
297;SDS011;133;49.626;9.680;2022-12-20T14:06:17;66.30;;;39.83;;
297;SDS011;133;49.626;9.680;2022-12-20T14:08:45;52.10;;;31.60;;
297;SDS011;133;49.626;9.680;2022-12-20T14:11:14;58.93;;;33.30;;
297;SDS011;133;49.626;9.680;2022-12-20T14:13:51;55.40;;;31.07;;
297;SDS011;133;49.626;9.680;2022-12-20T14:16:28;50.57;;;30.27;;
297;SDS011;133;49.626;9.680;2022-12-20T14:21:22;74.53;;;40.93;;
297;SDS011;133;49.626;9.680;2022-12-20T14:23:50;67.47;;;34.87;;
297;SDS011;133;49.626;9.680;2022-12-20T14:26:19;61.73;;;33.90;;
297;SDS011;133;49.626;9.680;2022-12-20T14:28:49;55.77;;;32.43;;
297;SDS011;133;49.626;9.680;2022-12-20T14:31:33;57.17;;;32.87;;
297;SDS011;133;49.626;9.680;2022-12-20T14:34:02;79.60;;;39.00;;
297;SDS011;133;49.626;9.680;2022-12-20T14:36:31;61.87;;;32.53;;
297;SDS011;133;49.626;9.680;2022-12-20T14:38:57;71.23;;;36.80;;
297;SDS011;133;49.626;9.680;2022-12-20T14:41:36;85.47;;;43.80;;
297;SDS011;133;49.626;9.680;2022-12-20T14:44:12;61.73;;;36.30;;
297;SDS011;133;49.626;9.680;2022-12-20T14:46:48;60.87;;;31.80;;
297;SDS011;133;49.626;9.680;2022-12-20T14:49:31;55.57;;;32.73;;
297;SDS011;133;49.626;9.680;2022-12-20T15:11:26;54.07;;;30.90;;
297;SDS011;133;49.626;9.680;2022-12-20T15:13:33;49.87;;;30.00;;
297;SDS011;133;49.626;9.680;2022-12-20T15:16:14;56.37;;;30.47;;
297;SDS011;133;49.626;9.680;2022-12-20T15:18:44;44.20;;;27.53;;
297;SDS011;133;49.626;9.680;2022-12-20T15:21:19;52.33;;;30.00;;
297;SDS011;133;49.626;9.680;2022-12-20T15:23:46;51.27;;;29.43;;
297;SDS011;133;49.626;9.680;2022-12-20T15:26:15;46.40;;;27.90;;
297;SDS011;133;49.626;9.680;2022-12-20T15:28:42;51.70;;;28.90;;
297;SDS011;133;49.626;9.680;2022-12-20T15:31:09;52.93;;;32.03;;
297;SDS011;133;49.626;9.680;2022-12-20T15:33:36;76.60;;;39.13;;
297;SDS011;133;49.626;9.680;2022-12-20T15:36:03;72.33;;;40.80;;
297;SDS011;133;49.626;9.680;2022-12-20T15:38:30;60.20;;;36.10;;
297;SDS011;133;49.626;9.680;2022-12-20T15:40:59;61.50;;;36.80;;
297;SDS011;133;49.626;9.680;2022-12-20T15:43:28;55.20;;;33.07;;
297;SDS011;133;49.626;9.680;2022-12-20T15:46:01;53.47;;;29.63;;
297;SDS011;133;49.626;9.680;2022-12-20T15:48:27;49.80;;;27.83;;
297;SDS011;133;49.626;9.680;2022-12-20T15:50:54;49.80;;;29.90;;
297;SDS011;133;49.626;9.680;2022-12-20T15:53:23;47.40;;;29.40;;
297;SDS011;133;49.626;9.680;2022-12-20T15:55:54;54.27;;;32.10;;
297;SDS011;133;49.626;9.680;2022-12-20T15:58:21;55.07;;;33.40;;
297;SDS011;133;49.626;9.680;2022-12-20T16:00:48;61.70;;;36.83;;
297;SDS011;133;49.626;9.680;2022-12-20T16:03:17;76.17;;;43.87;;
297;SDS011;133;49.626;9.680;2022-12-20T16:05:48;77.23;;;42.60;;
297;SDS011;133;49.626;9.680;2022-12-20T16:08:15;66.90;;;37.80;;
297;SDS011;133;49.626;9.680;2022-12-20T16:10:43;72.20;;;39.43;;
297;SDS011;133;49.626;9.680;2022-12-20T16:13:13;63.93;;;36.93;;
297;SDS011;133;49.626;9.680;2022-12-20T16:15:41;151.33;;;63.70;;
297;SDS011;133;49.626;9.680;2022-12-20T16:18:07;141.43;;;62.33;;
297;SDS011;133;49.626;9.680;2022-12-20T16:20:33;75.77;;;40.70;;
297;SDS011;133;49.626;9.680;2022-12-20T16:22:59;67.00;;;36.90;;
297;SDS011;133;49.626;9.680;2022-12-20T16:25:26;64.60;;;37.47;;
297;SDS011;133;49.626;9.680;2022-12-20T16:27:54;69.67;;;37.10;;
297;SDS011;133;49.626;9.680;2022-12-20T16:30:21;61.63;;;34.60;;
297;SDS011;133;49.626;9.680;2022-12-20T16:32:47;62.30;;;34.67;;
297;SDS011;133;49.626;9.680;2022-12-20T16:35:33;62.13;;;36.67;;
297;SDS011;133;49.626;9.680;2022-12-20T16:38:02;80.90;;;42.63;;
297;SDS011;133;49.626;9.680;2022-12-20T16:40:29;72.87;;;39.90;;
297;SDS011;133;49.626;9.680;2022-12-20T16:42:57;61.63;;;37.23;;
297;SDS011;133;49.626;9.680;2022-12-20T16:45:25;56.23;;;34.50;;
297;SDS011;133;49.626;9.680;2022-12-20T16:47:52;51.63;;;31.90;;
297;SDS011;133;49.626;9.680;2022-12-20T16:50:19;52.40;;;32.23;;
297;SDS011;133;49.626;9.680;2022-12-20T16:52:46;56.53;;;33.03;;
297;SDS011;133;49.626;9.680;2022-12-20T16:55:18;61.37;;;36.03;;
297;SDS011;133;49.626;9.680;2022-12-20T16:57:46;53.87;;;31.57;;
297;SDS011;133;49.626;9.680;2022-12-20T17:00:19;60.47;;;35.77;;
297;SDS011;133;49.626;9.680;2022-12-20T17:02:51;53.40;;;31.47;;
297;SDS011;133;49.626;9.680;2022-12-20T17:05:27;55.70;;;33.30;;
297;SDS011;133;49.626;9.680;2022-12-20T17:07:55;58.00;;;33.27;;
297;SDS011;133;49.626;9.680;2022-12-20T17:10:22;63.07;;;34.63;;
297;SDS011;133;49.626;9.680;2022-12-20T17:12:49;66.27;;;41.70;;
297;SDS011;133;49.626;9.680;2022-12-20T17:15:20;62.80;;;36.90;;
297;SDS011;133;49.626;9.680;2022-12-20T17:17:48;53.10;;;34.63;;
297;SDS011;133;49.626;9.680;2022-12-20T17:20:15;55.10;;;32.57;;
297;SDS011;133;49.626;9.680;2022-12-20T17:22:43;51.00;;;32.37;;
297;SDS011;133;49.626;9.680;2022-12-20T17:27:49;58.07;;;32.43;;
297;SDS011;133;49.626;9.680;2022-12-20T17:30:15;54.97;;;32.70;;
297;SDS011;133;49.626;9.680;2022-12-20T17:32:41;60.97;;;34.67;;
297;SDS011;133;49.626;9.680;2022-12-20T17:35:17;60.57;;;34.33;;
297;SDS011;133;49.626;9.680;2022-12-20T17:37:51;57.07;;;31.50;;